Time;durP1;ratioP1;P1;durP2;ratioP2;P2;SDS_P1;SDS_P2;PMS_P1;PMS_P2;Temp;Humidity;BMP_temperature;BMP_pressure;BME280_temperature;BME280_humidity;BME280_pressure;Samples;Min_cycle;Max_cycle;Signal;HPM_P1;HPM_P2
2021/05/12 00:01:51;;;;;;;25.48;12.35;;;;;;;8.44;75.28;94281.11;1685896;84;21032;-51
2021/05/12 00:04:17;;;;;;;31.65;12.55;;;;;;;8.39;75.48;94276.80;1685855;84;21088;-52
2021/05/12 00:06:43;;;;;;;29.85;13.18;;;;;;;8.36;75.63;94278.47;1685699;84;21091;-51
2021/05/12 00:09:10;;;;;;;26.82;10.70;;;;;;;8.34;75.83;94268.56;1685924;84;21024;-52
2021/05/12 00:11:36;;;;;;;21.60;12.33;;;;;;;8.32;76.12;94272.36;1685979;84;21001;-52
2021/05/12 00:14:04;;;;;;;31.87;14.70;;;;;;;8.25;76.42;94278.06;1685905;84;21741;-49
2021/05/12 00:16:30;;;;;;;35.33;16.07;;;;;;;8.21;76.67;94271.94;1685683;84;21503;-52
2021/05/12 00:18:56;;;;;;;30.25;16.75;;;;;;;8.15;76.65;94264.10;1686268;84;21192;-51
2021/05/12 00:21:30;;;;;;;38.33;21.45;;;;;;;8.08;76.85;94266.31;1705888;83;21000;-52
2021/05/12 00:23:59;;;;;;;30.48;17.60;;;;;;;8.03;76.81;94265.51;1684508;84;20949;-51
2021/05/12 00:26:32;;;;;;;19.92;14.07;;;;;;;7.98;76.58;94262.72;1686093;84;21116;-52
2021/05/12 00:28:56;;;;;;;28.20;10.98;;;;;;;7.95;76.65;94254.02;1685785;84;20964;-51
2021/05/12 00:31:22;;;;;;;23.67;10.72;;;;;;;7.94;76.63;94261.30;1706050;84;21421;-51
2021/05/12 00:33:48;;;;;;;18.60;10.65;;;;;;;7.90;76.67;94252.44;1706070;84;20941;-52
2021/05/12 00:36:15;;;;;;;39.00;15.70;;;;;;;7.87;76.89;94253.33;1685855;84;21020;-52
2021/05/12 00:38:41;;;;;;;39.75;15.80;;;;;;;7.85;77.08;94255.74;1685908;84;21500;-53
2021/05/12 00:41:07;;;;;;;31.25;14.70;;;;;;;7.84;77.49;94263.17;1705920;84;21104;-51
2021/05/12 00:43:33;;;;;;;28.70;15.08;;;;;;;7.80;77.44;94262.53;1696113;83;21091;-51
2021/05/12 00:46:00;;;;;;;29.92;15.63;;;;;;;7.77;77.42;94258.53;1700197;83;21011;-52
2021/05/12 00:48:26;;;;;;;25.37;14.23;;;;;;;7.73;77.40;94254.53;1700193;83;20975;-52
2021/05/12 00:50:52;;;;;;;39.03;15.15;;;;;;;7.71;77.51;94252.09;1699922;83;21483;-52
2021/05/12 00:53:19;;;;;;;32.25;14.95;;;;;;;7.71;77.43;94253.46;1699869;83;20980;-52
2021/05/12 00:55:45;;;;;;;37.28;18.17;;;;;;;7.66;77.30;94250.67;1727133;83;21029;-51
2021/05/12 00:58:11;;;;;;;26.82;17.25;;;;;;;7.61;77.33;94255.34;1726829;83;20991;-52
2021/05/12 01:00:37;;;;;;;31.52;14.70;;;;;;;7.61;77.34;94244.97;1726915;83;21527;-53
2021/05/12 01:03:05;;;;;;;36.95;15.85;;;;;;;7.58;77.46;94248.59;1699913;83;21047;-51
2021/05/12 01:05:40;;;;;;;31.82;15.65;;;;;;;7.56;77.57;94245.53;1727025;83;21023;-51
2021/05/12 01:08:06;;;;;;;32.80;16.15;;;;;;;7.55;77.88;94244.01;1700175;83;21079;-52
2021/05/12 01:10:34;;;;;;;24.77;13.83;;;;;;;7.57;77.98;94244.33;1699748;83;21480;-52
2021/05/12 01:13:00;;;;;;;26.62;13.55;;;;;;;7.60;77.86;94231.91;1727118;83;20888;-50
2021/05/12 01:15:27;;;;;;;22.90;13.08;;;;;;;7.62;77.62;94228.12;1699926;83;21087;-52
2021/05/12 01:18:12;;;;;;;34.58;13.22;;;;;;;7.65;77.48;94224.50;1699979;83;21525;-52
2021/05/12 01:21:02;;;;;;;26.25;13.53;;;;;;;7.68;77.35;94233.20;1694372;84;21818;-51
2021/05/12 01:23:31;;;;;;;26.60;14.05;;;;;;;7.66;77.48;94230.14;1694235;83;21016;-52
2021/05/12 01:25:59;;;;;;;28.07;15.72;;;;;;;7.63;77.51;94224.18;1726988;83;21024;-51
2021/05/12 01:28:27;;;;;;;25.20;14.13;;;;;;;7.58;77.30;94222.01;1699961;83;21046;-52
2021/05/12 01:31:07;;;;;;;30.02;13.60;;;;;;;7.50;77.39;94219.31;1699827;81;21004;-50
2021/05/12 01:33:35;;;;;;;31.20;15.13;;;;;;;7.44;77.54;94221.67;1699983;83;21063;-51
2021/05/12 01:36:02;;;;;;;21.85;11.45;;;;;;;7.41;77.81;94215.13;1699859;83;21035;-52
2021/05/12 01:38:30;;;;;;;21.48;10.75;;;;;;;7.39;77.75;94220.28;1726980;83;20997;-51
2021/05/12 01:40:56;;;;;;;16.02;10.70;;;;;;;7.36;77.96;94211.55;1699908;83;21095;-52
2021/05/12 01:43:23;;;;;;;25.37;11.45;;;;;;;7.30;78.08;94202.38;1692773;83;20988;-52
2021/05/12 01:45:49;;;;;;;19.50;12.03;;;;;;;7.23;78.23;94202.61;1685402;83;21020;-52
2021/05/12 01:48:16;;;;;;;14.03;9.83;;;;;;;7.21;78.45;94209.13;1685263;83;21091;-52
2021/05/12 01:50:43;;;;;;;19.70;11.12;;;;;;;7.19;78.45;94197.83;1685462;83;20985;-52
2021/05/12 01:53:11;;;;;;;27.27;11.20;;;;;;;7.11;78.38;94199.27;1713861;83;21020;-50
2021/05/12 01:55:38;;;;;;;22.77;13.78;;;;;;;7.04;78.48;94205.55;1713839;83;21028;-51
2021/05/12 01:58:05;;;;;;;17.12;12.65;;;;;;;7.02;78.77;94193.52;1685545;83;21091;-50
2021/05/12 02:00:38;;;;;;;33.65;13.85;;;;;;;7.01;78.81;94187.88;1685342;83;21456;-50
2021/05/12 02:03:06;;;;;;;;;;;;;;;7.02;78.61;94198.39;1716019;83;21088;-49
2021/05/12 02:05:33;;;;;;;20.10;13.60;;;;;;;7.02;78.54;94190.77;1713765;83;20212;-52
2021/05/12 02:08:01;;;;;;;30.00;13.38;;;;;;;7.02;78.57;94193.52;1685434;83;21023;-56
2021/05/12 02:10:28;;;;;;;26.50;14.55;;;;;;;6.99;78.74;94191.66;1685282;83;22743;-58
2021/05/12 02:12:55;;;;;;;32.25;15.35;;;;;;;6.95;78.86;94191.00;1685214;83;21052;-56
2021/05/12 02:15:22;;;;;;;32.20;16.40;;;;;;;6.87;78.91;94184.98;1685525;83;21020;-57
2021/05/12 02:17:49;;;;;;;28.55;17.20;;;;;;;6.82;79.03;94185.53;1685288;83;21507;-57
2021/05/12 02:20:19;;;;;;;24.05;12.75;;;;;;;6.80;79.07;94184.42;1685613;83;21020;-56
2021/05/12 02:22:45;;;;;;;24.37;13.85;;;;;;;6.79;78.87;94191.09;1662512;83;21032;-56
2021/05/12 02:25:12;;;;;;;20.20;11.33;;;;;;;6.73;78.92;94185.40;1713713;83;21079;-56
2021/05/12 02:27:38;;;;;;;33.95;22.17;;;;;;;6.74;78.73;94187.55;1713835;83;20969;-55
2021/05/12 02:30:07;;;;;;;23.50;15.05;;;;;;;6.76;78.76;94185.14;1685490;83;21080;-49
2021/05/12 02:32:34;;;;;;;23.83;13.40;;;;;;;6.75;78.60;94176.78;1713777;83;21095;-49
2021/05/12 02:35:00;;;;;;;23.52;17.10;;;;;;;6.68;78.71;94167.44;1685332;83;21476;-50
2021/05/12 02:37:26;;;;;;;28.67;12.75;;;;;;;6.63;78.87;94174.79;1713686;83;21079;-49
2021/05/12 02:39:53;;;;;;;18.75;11.15;;;;;;;6.60;79.31;94174.30;1685516;83;21523;-50
2021/05/12 02:42:22;;;;;;;23.80;12.63;;;;;;;6.61;79.32;94178.56;1685559;83;21011;-50
2021/05/12 02:44:48;;;;;;;17.75;10.43;;;;;;;6.63;79.46;94181.03;1719219;83;21563;-51
2021/05/12 02:47:15;;;;;;;17.70;11.15;;;;;;;6.64;79.50;94177.09;1719538;83;21043;-51
2021/05/12 02:49:41;;;;;;;19.15;11.97;;;;;;;6.65;79.55;94180.58;1719359;83;21035;-50
2021/05/12 02:52:07;;;;;;;19.15;12.15;;;;;;;6.62;79.56;94169.16;1692405;83;21070;-50
2021/05/12 02:54:34;;;;;;;18.07;11.45;;;;;;;6.60;79.58;94178.39;1719467;83;21079;-51
2021/05/12 02:57:02;;;;;;;26.42;13.58;;;;;;;6.59;79.61;94168.67;1692563;83;21023;-51
2021/05/12 02:59:28;;;;;;;22.50;14.60;;;;;;;6.59;79.58;94168.67;1692536;83;20987;-51
2021/05/12 03:01:54;;;;;;;91.65;45.70;;;;;;;6.56;79.50;94175.00;1692727;83;21028;-51
2021/05/12 03:04:21;;;;;;;73.80;37.85;;;;;;;6.52;79.63;94174.35;1719563;83;21464;-50
2021/05/12 03:06:47;;;;;;;45.00;24.95;;;;;;;6.53;79.87;94171.17;1719474;82;21559;-51
2021/05/12 03:09:13;;;;;;;32.75;16.57;;;;;;;6.57;79.66;94171.07;1719602;83;21110;-50
2021/05/12 03:11:40;;;;;;;31.77;15.55;;;;;;;6.55;79.44;94174.23;1719636;83;21061;-50
2021/05/12 03:14:07;;;;;;;40.10;14.85;;;;;;;6.54;79.43;94177.41;1692761;83;21071;-50
2021/05/12 03:16:33;;;;;;;29.30;13.48;;;;;;;6.54;79.45;94180.14;1692673;83;21055;-50
2021/05/12 03:19:00;;;;;;;30.70;13.25;;;;;;;6.54;79.48;94178.16;1692652;83;21488;-49
2021/05/12 03:21:29;;;;;;;27.95;14.98;;;;;;;6.56;79.69;94177.73;1692784;83;21629;-50
2021/05/12 03:23:55;;;;;;;27.85;15.13;;;;;;;6.62;79.65;94175.41;1719531;83;21816;-49
2021/05/12 03:26:22;;;;;;;28.98;14.55;;;;;;;6.67;79.41;94168.02;1719511;83;20988;-50
2021/05/12 03:28:48;;;;;;;16.87;9.75;;;;;;;6.66;79.15;94168.47;1719628;83;21020;-50
2021/05/12 03:31:14;;;;;;;19.17;10.60;;;;;;;6.60;79.16;94164.73;1692660;83;21079;-49
2021/05/12 03:33:41;;;;;;;19.62;10.58;;;;;;;6.57;79.29;94168.34;1692850;83;20983;-49
2021/05/12 03:36:08;;;;;;;26.30;10.95;;;;;;;6.56;79.51;94169.55;1692880;83;23384;-50
2021/05/12 03:38:35;;;;;;;19.65;10.78;;;;;;;6.57;79.64;94161.51;1692743;83;21102;-51
2021/05/12 03:41:02;;;;;;;18.95;11.40;;;;;;;6.63;79.57;94165.22;1693055;83;21079;-50
2021/05/12 03:43:28;;;;;;;20.35;11.03;;;;;;;6.64;79.49;94159.92;1691231;83;20948;-50
2021/05/12 03:45:54;;;;;;;16.17;11.33;;;;;;;6.66;79.48;94161.64;1687516;83;21060;-50
2021/05/12 03:48:21;;;;;;;21.55;9.13;;;;;;;6.69;79.52;94156.66;1715882;83;21765;-51
2021/05/12 03:50:47;;;;;;;26.82;10.93;;;;;;;6.73;79.46;94158.06;1715899;83;20989;-51
2021/05/12 03:53:14;;;;;;;20.15;10.65;;;;;;;6.77;79.47;94152.50;1716031;83;21067;-51
2021/05/12 03:55:41;;;;;;;16.55;9.68;;;;;;;6.85;79.47;94147.00;1687378;83;21113;-51
2021/05/12 03:58:08;;;;;;;16.55;10.48;;;;;;;6.94;79.67;94144.36;1687459;83;21036;-51
2021/05/12 04:00:35;;;;;;;15.00;10.88;;;;;;;7.06;79.38;94153.17;1716026;83;21115;-51
2021/05/12 04:03:01;;;;;;;25.90;10.30;;;;;;;7.15;78.99;94149.31;1687226;83;21004;-51
2021/05/12 04:05:27;;;;;;;16.70;10.43;;;;;;;7.25;78.78;94145.48;1687588;83;21523;-51
2021/05/12 04:07:54;;;;;;;18.17;10.32;;;;;;;7.36;78.61;94147.25;1687419;83;21091;-50
2021/05/12 04:10:21;;;;;;;15.85;10.58;;;;;;;7.53;78.53;94147.27;1715842;83;21574;-50
2021/05/12 04:12:47;;;;;;;15.00;9.58;;;;;;;7.68;78.18;94146.97;1687623;83;21075;-50
2021/05/12 04:15:14;;;;;;;24.65;12.98;;;;;;;7.83;77.74;94146.64;1687335;83;21122;-51
2021/05/12 04:17:41;;;;;;;18.55;11.08;;;;;;;7.91;77.43;94142.44;1687353;83;21583;-51
2021/05/12 04:20:14;;;;;;;12.35;9.43;;;;;;;7.97;76.98;94139.31;1687550;83;21020;-50
2021/05/12 04:22:40;;;;;;;18.20;11.28;;;;;;;8.03;76.58;94133.41;1715896;83;21008;-51
2021/05/12 04:25:11;;;;;;;20.65;9.60;;;;;;;8.10;76.27;94133.16;1715821;83;21072;-51
2021/05/12 04:27:37;;;;;;;16.35;10.65;;;;;;;8.15;76.01;94128.49;1715952;82;21079;-50
2021/05/12 04:30:09;;;;;;;20.60;12.55;;;;;;;8.25;75.90;94124.62;1687266;83;20988;-51
2021/05/12 04:32:34;;;;;;;27.35;12.00;;;;;;;8.33;75.79;94121.79;1715805;82;21610;-52
2021/05/12 04:35:01;;;;;;;14.85;10.25;;;;;;;8.45;75.63;94120.93;1687454;83;20992;-51
2021/05/12 04:37:27;;;;;;;20.90;10.35;;;;;;;8.61;75.23;94119.34;1687475;83;21090;-52
2021/05/12 04:39:53;;;;;;;17.92;9.48;;;;;;;8.74;74.78;94121.40;1687428;83;21061;-51
2021/05/12 04:42:20;;;;;;;17.57;9.15;;;;;;;8.86;74.53;94116.44;1687491;83;20964;-52
2021/05/12 04:44:46;;;;;;;29.95;12.78;;;;;;;8.99;74.21;94111.59;1686052;83;21115;-51
2021/05/12 04:47:13;;;;;;;26.97;22.55;;;;;;;9.13;73.90;94104.95;1713968;83;21008;-51
2021/05/12 04:49:39;;;;;;;15.03;12.47;;;;;;;9.31;73.56;94115.20;1685422;83;20983;-50
2021/05/12 04:52:05;;;;;;;21.77;10.48;;;;;;;9.45;73.04;94103.02;1713816;83;21047;-51
2021/05/12 04:54:32;;;;;;;16.05;9.88;;;;;;;9.53;72.78;94096.63;1685397;83;21000;-50
2021/05/12 04:56:59;;;;;;;34.15;12.00;;;;;;;9.59;72.28;94098.32;1713894;83;21004;-51
2021/05/12 04:59:26;;;;;;;18.30;10.48;;;;;;;9.65;72.06;94094.36;1713857;83;21020;-50
2021/05/12 05:01:52;;;;;;;12.82;8.73;;;;;;;9.74;71.63;94091.02;1685552;83;21666;-51
2021/05/12 05:04:20;;;;;;;22.50;8.73;;;;;;;9.85;71.18;94094.68;1685231;83;20976;-51
2021/05/12 05:06:47;;;;;;;20.52;9.73;;;;;;;9.96;70.84;94084.75;1662379;83;21056;-50
2021/05/12 05:09:13;;;;;;;14.70;8.58;;;;;;;10.07;70.50;94085.69;1685217;83;21670;-50
2021/05/12 05:11:40;;;;;;;16.27;7.62;;;;;;;10.23;70.24;94089.48;1713665;83;20992;-52
2021/05/12 05:14:07;;;;;;;12.63;7.78;;;;;;;10.39;69.47;94081.66;1713740;82;21049;-49
2021/05/12 05:16:34;;;;;;;18.65;6.70;;;;;;;10.52;68.90;94082.88;1685083;83;20960;-52
2021/05/12 05:19:00;;;;;;;11.05;6.28;;;;;;;10.59;68.36;94077.04;1681392;83;21664;-51
2021/05/12 05:21:26;;;;;;;14.47;7.60;;;;;;;10.67;67.82;94079.59;1683515;82;21066;-53
2021/05/12 05:23:54;;;;;;;26.10;7.35;;;;;;;10.72;67.39;94083.87;1735041;82;21082;-53
2021/05/12 05:26:21;;;;;;;13.80;6.60;;;;;;;10.77;67.10;94071.63;1697230;82;21796;-53
2021/05/12 05:28:50;;;;;;;16.82;7.28;;;;;;;10.88;66.88;94075.25;1701236;83;21099;-51
2021/05/12 05:31:17;;;;;;;25.02;8.05;;;;;;;11.00;66.50;94075.67;1696295;82;21036;-55
2021/05/12 05:34:02;;;;;;;14.28;8.45;;;;;;;11.11;66.46;94072.55;1721681;82;21815;-52
2021/05/12 05:36:47;;;;;;;29.50;7.72;;;;;;;11.22;66.20;94070.06;1732685;81;21057;-51
2021/05/12 05:39:36;;;;;;;16.55;10.50;;;;;;;11.31;66.08;94058.98;1692719;83;21479;-53
2021/05/12 05:42:21;;;;;;;26.07;8.63;;;;;;;11.41;65.99;94051.42;1699361;82;21108;-54
2021/05/12 05:44:56;;;;;;;30.35;9.70;;;;;;;11.55;65.71;94056.98;1683523;82;21064;-52
2021/05/12 05:47:41;;;;;;;21.60;7.67;;;;;;;11.69;65.33;94057.69;1686249;82;21039;-58
2021/05/12 05:50:26;;;;;;;26.15;9.35;;;;;;;11.82;65.40;94051.31;1723281;82;21111;-53
2021/05/12 05:53:11;;;;;;;20.60;6.75;;;;;;;11.97;65.60;94050.73;1686496;83;21204;-52
2021/05/12 05:55:57;;;;;;;16.65;7.53;;;;;;;12.14;65.16;94049.05;1701178;83;21175;-55
2021/05/12 05:58:42;;;;;;;27.90;8.05;;;;;;;12.28;64.66;94038.63;1678165;82;21094;-56
2021/05/12 06:01:27;;;;;;;20.50;7.42;;;;;;;12.40;64.16;94044.50;1684635;83;21156;-54
2021/05/12 06:03:54;;;;;;;22.30;7.55;;;;;;;12.54;63.65;94040.34;1674417;82;21177;-57
2021/05/12 06:06:39;;;;;;;27.62;6.67;;;;;;;12.71;62.97;94035.87;1684567;83;21135;-56
2021/05/12 06:09:23;;;;;;;17.32;6.33;;;;;;;12.89;62.54;94030.77;1671186;83;22136;-56
2021/05/12 06:12:09;;;;;;;19.12;7.33;;;;;;;13.05;61.79;94028.27;1682562;82;21024;-55
2021/05/12 06:14:54;;;;;;;18.42;6.83;;;;;;;13.18;61.51;94017.67;1673434;82;21431;-56
2021/05/12 06:17:38;;;;;;;14.33;7.00;;;;;;;13.34;60.98;94015.77;1676766;83;21547;-56
2021/05/12 06:20:23;;;;;;;22.22;6.83;;;;;;;13.50;60.31;94010.31;1690994;82;22750;-57
2021/05/12 06:23:08;;;;;;;12.15;6.90;;;;;;;13.64;59.86;93997.05;1681899;82;21131;-56
2021/05/12 06:25:53;;;;;;;25.82;7.08;;;;;;;13.78;59.58;94002.48;1725154;82;21146;-56
2021/05/12 06:28:38;;;;;;;19.70;5.78;;;;;;;13.92;59.55;93995.34;1679715;82;22193;-55
2021/05/12 06:31:23;;;;;;;12.35;6.22;;;;;;;14.07;58.70;93989.10;1675474;82;21134;-58
2021/05/12 06:34:07;;;;;;;21.37;6.25;;;;;;;14.25;58.39;93986.81;1705653;82;21813;-57
2021/05/12 06:36:53;;;;;;;24.67;7.20;;;;;;;14.43;57.88;93980.31;1677868;82;21090;-58
2021/05/12 06:39:38;;;;;;;19.00;7.40;;;;;;;14.59;57.21;93979.69;1675028;83;21312;-55
2021/05/12 06:42:06;;;;;;;31.12;7.92;;;;;;;14.75;56.69;93981.84;1636596;86;21070;-54
2021/05/12 06:44:33;;;;;;;26.82;7.87;;;;;;;14.93;56.54;93979.31;1648819;84;21109;-56
2021/05/12 06:46:59;;;;;;;21.45;6.47;;;;;;;15.08;55.75;93975.77;1657064;84;21758;-56
2021/05/12 06:49:26;;;;;;;14.28;6.03;;;;;;;15.22;55.15;93974.20;1639969;84;21099;-56
2021/05/12 06:51:56;;;;;;;14.53;5.47;;;;;;;15.36;54.75;93967.77;1642972;84;21116;-56
2021/05/12 06:54:23;;;;;;;18.10;5.08;;;;;;;15.52;54.15;93965.70;1651163;84;21075;-53
2021/05/12 06:56:50;;;;;;;16.62;5.17;;;;;;;15.70;53.28;93965.28;1658965;83;21057;-58
2021/05/12 06:59:16;;;;;;;10.82;5.08;;;;;;;15.84;52.19;93962.17;1707873;82;22337;-55
2021/05/12 07:01:43;;;;;;;15.53;4.55;;;;;;;15.97;51.70;93960.47;1667148;84;21121;-56
2021/05/12 07:04:10;;;;;;;10.82;3.62;;;;;;;16.16;50.74;93957.36;1664604;83;21097;-58
2021/05/12 07:06:36;;;;;;;12.98;4.35;;;;;;;16.33;50.29;93956.75;1678523;83;21162;-57
2021/05/12 07:09:03;;;;;;;9.38;4.20;;;;;;;16.49;49.96;93951.23;1677375;83;21158;-54
2021/05/12 07:11:30;;;;;;;15.95;4.95;;;;;;;16.65;49.46;93948.33;1674973;82;23225;-52
2021/05/12 07:13:57;;;;;;;11.63;4.15;;;;;;;16.83;49.20;93948.59;1669867;83;21654;-56
2021/05/12 07:16:23;;;;;;;11.35;4.58;;;;;;;17.02;48.87;93946.80;1677198;83;21063;-54
2021/05/12 07:18:51;;;;;;;7.33;4.35;;;;;;;17.27;49.11;93943.59;1709240;82;21090;-55
2021/05/12 07:21:17;;;;;;;7.42;3.00;;;;;;;17.46;48.13;93938.38;1711560;82;21538;-57
2021/05/12 07:23:44;;;;;;;3.42;2.85;;;;;;;17.71;48.16;93936.52;1702437;82;21093;-54
2021/05/12 07:26:12;;;;;;;4.67;2.95;;;;;;;17.92;47.81;93935.66;1705326;82;21105;-58
2021/05/12 07:28:41;;;;;;;6.22;3.25;;;;;;;18.09;46.39;93933.55;1676968;82;21054;-62
2021/05/12 07:31:08;;;;;;;6.85;3.55;;;;;;;18.25;46.16;93930.66;1709419;82;21007;-56
2021/05/12 07:33:36;;;;;;;5.45;3.67;;;;;;;18.47;46.79;93922.17;1698718;82;21070;-57
2021/05/12 07:36:04;;;;;;;7.10;3.08;;;;;;;18.66;45.87;93920.25;1712139;82;22175;-55
2021/05/12 07:38:31;;;;;;;12.55;3.10;;;;;;;18.87;46.46;93922.73;1667001;82;21138;-56
2021/05/12 07:41:00;;;;;;;5.17;3.30;;;;;;;19.06;45.57;93919.41;1674551;83;21110;-55
2021/05/12 07:43:26;;;;;;;7.15;2.80;;;;;;;19.23;45.65;93913.03;1667084;82;21287;-54
2021/05/12 07:45:52;;;;;;;9.43;3.12;;;;;;;19.41;45.74;93915.77;1676818;83;21040;-56
2021/05/12 07:48:19;;;;;;;7.28;2.72;;;;;;;19.57;45.25;93915.58;1679054;83;21063;-54
2021/05/12 07:50:46;;;;;;;7.28;3.10;;;;;;;19.73;44.10;93907.65;1686969;82;21703;-55
2021/05/12 07:53:12;;;;;;;6.75;2.87;;;;;;;19.89;45.20;93910.87;1716368;82;21621;-56
2021/05/12 07:55:39;;;;;;;12.33;3.15;;;;;;;20.04;43.21;93908.42;1700191;81;21094;-55
2021/05/12 07:58:05;;;;;;;8.08;4.42;;;;;;;20.17;43.80;93912.70;1683392;82;21519;-57
2021/05/12 08:00:34;;;;;;;8.63;3.20;;;;;;;20.30;43.59;93907.16;1684568;83;21171;-55
2021/05/12 08:03:00;;;;;;;4.75;3.25;;;;;;;20.42;43.12;93906.48;1685053;82;21161;-62
2021/05/12 08:05:27;;;;;;;8.95;2.95;;;;;;;20.54;42.95;93898.69;1688014;81;21091;-53
2021/05/12 08:07:53;;;;;;;12.45;3.85;;;;;;;20.64;42.00;93896.98;1715368;82;21140;-54
2021/05/12 08:10:20;;;;;;;7.58;3.10;;;;;;;20.75;41.46;93888.43;1681957;82;21047;-60
2021/05/12 08:12:46;;;;;;;6.80;3.15;;;;;;;20.90;41.47;93884.53;1689585;82;21161;-58
2021/05/12 08:15:13;;;;;;;5.72;2.70;;;;;;;21.02;41.00;93891.41;1690523;83;21122;-61
2021/05/12 08:17:39;;;;;;;5.45;2.42;;;;;;;21.15;41.09;93887.25;1707737;82;21602;-57
2021/05/12 08:20:07;;;;;;;6.70;2.62;;;;;;;21.29;41.09;93883.18;1679801;83;21563;-56
2021/05/12 08:22:34;;;;;;;9.53;3.77;;;;;;;21.43;40.29;93881.88;1697490;82;21094;-57
2021/05/12 08:25:00;;;;;;;7.67;2.00;;;;;;;21.54;40.11;93877.47;1696124;82;21003;-55
2021/05/12 08:27:27;;;;;;;4.22;2.15;;;;;;;21.70;41.40;93872.22;1688455;82;21383;-54
2021/05/12 08:29:55;;;;;;;3.98;1.80;;;;;;;21.83;40.05;93865.95;1675708;82;21103;-59
2021/05/12 08:32:24;;;;;;;12.05;2.90;;;;;;;21.93;39.69;93867.02;1693631;83;21067;-58
2021/05/12 08:34:50;;;;;;;7.33;3.37;;;;;;;22.01;38.19;93855.91;1691744;82;21626;-57
2021/05/12 08:37:17;;;;;;;6.10;2.20;;;;;;;22.09;38.21;93858.91;1691811;83;21116;-56
2021/05/12 08:39:43;;;;;;;3.62;1.75;;;;;;;22.19;39.99;93857.14;1682935;83;21086;-55
2021/05/12 08:42:09;;;;;;;5.55;1.70;;;;;;;22.34;39.46;93858.08;1667518;84;21634;-57
2021/05/12 08:44:36;;;;;;;5.35;1.77;;;;;;;22.45;38.78;93857.09;1664364;84;21081;-58
2021/05/12 08:47:03;;;;;;;2.17;1.80;;;;;;;22.56;38.16;93852.61;1670552;83;21098;-56
2021/05/12 08:49:31;;;;;;;11.05;2.47;;;;;;;22.69;38.96;93853.95;1647654;84;21152;-55
2021/05/12 08:51:57;;;;;;;8.55;3.08;;;;;;;22.79;38.47;93849.36;1631617;83;21259;-58
2021/05/12 08:54:24;;;;;;;11.70;2.10;;;;;;;22.83;37.17;93839.97;1665770;84;21006;-62
2021/05/12 08:56:51;;;;;;;4.40;1.67;;;;;;;22.90;39.32;93837.86;1666610;83;21197;-61
2021/05/12 08:59:17;;;;;;;7.90;2.33;;;;;;;22.95;38.46;93830.72;1667119;83;21160;-56
2021/05/12 09:01:43;;;;;;;6.30;2.95;;;;;;;23.04;39.55;93830.88;1664511;84;21065;-55
2021/05/12 09:04:10;;;;;;;6.75;2.25;;;;;;;23.14;39.25;93832.66;1661098;84;21113;-56
2021/05/12 09:06:37;;;;;;;9.20;2.40;;;;;;;23.19;37.68;93828.95;1672069;84;21075;-55
2021/05/12 09:09:07;;;;;;;6.75;2.35;;;;;;;23.27;37.44;93827.59;1694362;83;22066;-57
2021/05/12 09:11:35;;;;;;;5.37;3.25;;;;;;;23.32;37.92;93823.88;1667256;84;21624;-57
2021/05/12 09:14:03;;;;;;;10.05;5.78;;;;;;;23.36;38.16;93820.83;1681355;83;21932;-57
2021/05/12 09:16:31;;;;;;;11.15;3.12;;;;;;;23.37;38.61;93820.93;1678043;84;21114;-55
2021/05/12 09:19:07;;;;;;;4.97;2.37;;;;;;;23.42;38.19;93811.59;1666204;83;21233;-54
2021/05/12 09:21:58;;;;;;;9.60;3.80;;;;;;;23.51;39.48;93811.09;1674264;84;21829;-56
2021/05/12 09:24:36;;;;;;;6.35;2.75;;;;;;;23.66;38.90;93809.78;1665210;84;21006;-61
2021/05/12 09:27:21;;;;;;;7.08;2.35;;;;;;;23.77;37.70;93810.84;1667438;84;22632;-54
2021/05/12 09:29:45;;;;;;;1.80;1.60;;;;;;;23.84;37.59;93808.77;1654541;84;21051;-58
2021/05/12 09:32:17;;;;;;;4.90;1.50;;;;;;;23.92;36.95;93817.97;1669580;83;21071;-58
2021/05/12 09:35:01;;;;;;;5.10;1.98;;;;;;;23.95;36.46;93812.63;1693116;83;21659;-58
2021/05/12 09:37:35;;;;;;;1.85;1.65;;;;;;;23.98;37.14;93813.69;1703496;81;21961;-57
2021/05/12 09:40:09;;;;;;;5.85;3.00;;;;;;;24.01;35.82;93804.14;1663390;83;21264;-57
2021/05/12 09:42:37;;;;;;;6.17;2.58;;;;;;;23.97;35.04;93804.39;1679162;83;22201;-55
2021/05/12 09:45:21;;;;;;;4.83;2.45;;;;;;;24.00;35.36;93794.88;1653834;82;21736;-58
2021/05/12 09:47:58;;;;;;;5.92;1.80;;;;;;;24.11;37.12;93800.14;1696415;83;21394;-54
2021/05/12 09:50:32;;;;;;;6.45;1.90;;;;;;;24.29;37.72;93796.25;1711599;82;22254;-56
2021/05/12 09:53:08;;;;;;;8.35;2.35;;;;;;;24.48;36.98;93797.42;1664704;83;22694;-56
2021/05/12 09:55:49;;;;;;;5.87;2.42;;;;;;;24.66;36.48;93792.77;1684994;83;22321;-56
2021/05/12 09:58:21;;;;;;;4.83;1.75;;;;;;;24.83;36.63;93803.58;1671385;83;21084;-60
2021/05/12 10:00:48;;;;;;;8.73;1.80;;;;;;;24.86;33.14;93796.83;1659038;84;21077;-55
2021/05/12 10:03:16;;;;;;;7.70;1.90;;;;;;;24.72;34.17;93787.73;1721048;81;21088;-59
2021/05/12 10:05:57;;;;;;;4.92;1.50;;;;;;;24.59;34.57;93790.72;1672221;83;21685;-55
2021/05/12 10:08:26;;;;;;;3.10;1.80;;;;;;;24.57;34.25;93793.34;1705613;82;21136;-56
2021/05/12 10:11:05;;;;;;;8.38;2.10;;;;;;;24.75;34.99;93782.38;1707841;83;21036;-56
2021/05/12 10:13:33;;;;;;;5.00;1.90;;;;;;;25.01;34.83;93788.38;1670589;83;21076;-55
2021/05/12 10:16:01;;;;;;;4.72;1.90;;;;;;;25.31;34.93;93790.44;1677729;85;22267;-56
2021/05/12 10:18:27;;;;;;;8.95;2.02;;;;;;;25.61;34.50;93788.95;1663123;83;21180;-56
2021/05/12 10:20:57;;;;;;;6.42;2.10;;;;;;;25.85;32.33;93780.63;1703327;82;21118;-57
2021/05/12 10:23:22;;;;;;;17.62;2.02;;;;;;;26.10;32.42;93782.21;1671121;82;21045;-55
2021/05/12 10:25:49;;;;;;;5.25;1.90;;;;;;;26.39;33.68;93774.92;1689548;82;21138;-58
2021/05/12 10:28:16;;;;;;;7.85;2.60;;;;;;;26.64;33.09;93779.95;1712780;82;20996;-56
2021/05/12 10:30:42;;;;;;;6.22;2.15;;;;;;;26.69;32.16;93778.96;1688991;82;21875;-57
2021/05/12 10:33:12;;;;;;;10.58;2.10;;;;;;;26.78;31.67;93772.70;1696122;83;21038;-57
2021/05/12 10:35:39;;;;;;;9.25;1.70;;;;;;;26.78;32.11;93770.52;1680983;83;21085;-55
2021/05/12 10:38:07;;;;;;;4.70;1.95;;;;;;;26.87;33.36;93769.23;1691374;82;21096;-55
2021/05/12 10:40:40;;;;;;;5.12;1.98;;;;;;;27.05;31.70;93769.36;1717610;82;21081;-55
2021/05/12 10:43:20;;;;;;;5.12;2.20;;;;;;;27.20;31.74;93762.20;1718607;82;21143;-55
2021/05/12 10:45:54;;;;;;;15.15;2.72;;;;;;;27.35;32.14;93763.47;1718934;82;21177;-57
2021/05/12 10:48:45;;;;;;;9.33;2.37;;;;;;;27.55;30.68;93769.38;1747631;81;21004;-58
2021/05/12 10:51:33;;;;;;;8.20;2.22;;;;;;;27.71;31.34;93767.91;1721545;82;21103;-55
2021/05/12 10:54:06;;;;;;;9.78;2.50;;;;;;;27.50;30.89;93767.55;1722463;82;21052;-55
2021/05/12 10:56:38;;;;;;;7.42;2.40;;;;;;;27.08;30.39;93768.23;1715362;82;21114;-56
2021/05/12 10:59:12;;;;;;;8.33;2.50;;;;;;;26.62;31.14;93766.31;1687061;84;21071;-55
2021/05/12 11:01:48;;;;;;;10.03;2.98;;;;;;;26.06;31.30;93764.94;1662325;84;21188;-57
2021/05/12 11:04:16;;;;;;;6.22;2.72;;;;;;;25.66;31.46;93759.84;1653546;83;21143;-55
2021/05/12 11:06:55;;;;;;;6.53;2.37;;;;;;;25.47;33.19;93759.52;1715452;82;21079;-56
2021/05/12 11:09:39;;;;;;;5.72;2.45;;;;;;;25.33;32.57;93754.02;1699942;82;21151;-56
2021/05/12 11:12:15;;;;;;;9.88;2.98;;;;;;;25.09;32.98;93760.97;1691995;82;21126;-58
2021/05/12 11:14:41;;;;;;;5.70;2.40;;;;;;;25.21;33.33;93761.34;1653377;85;21959;-56
2021/05/12 11:17:17;;;;;;;4.08;2.25;;;;;;;25.17;33.48;93753.92;1677366;83;21562;-57
2021/05/12 11:19:50;;;;;;;7.87;2.60;;;;;;;25.05;33.11;93756.38;1669068;83;21076;-55
2021/05/12 11:22:39;;;;;;;4.40;2.10;;;;;;;25.34;34.33;93751.28;1682983;82;21942;-54
2021/05/12 11:33:23;;;;;;;;;;;;;;;27.58;32.45;93749.84;1687149;82;21186;-55
2021/05/12 11:35:55;;;;;;;11.75;3.33;;;;;;;27.80;32.75;93743.20;1716655;82;21094;-56
2021/05/12 11:38:19;;;;;;;8.13;2.58;;;;;;;27.94;32.01;93751.42;1685358;83;21127;-57
2021/05/12 11:41:16;;;;;;;11.22;2.37;;;;;;;28.23;30.87;93750.96;1693936;82;21511;-58
2021/05/12 11:43:47;;;;;;;12.93;3.30;;;;;;;28.33;30.85;93750.36;1699529;82;21547;-56
2021/05/12 11:46:20;;;;;;;9.38;3.30;;;;;;;28.61;31.14;93754.03;1707518;82;21106;-62
2021/05/12 11:49:04;;;;;;;7.90;3.12;;;;;;;29.00;31.49;93750.04;1693002;81;21166;-59
2021/05/12 11:51:45;;;;;;;14.00;3.30;;;;;;;29.29;30.52;93751.61;1713285;81;21051;-57